Time;durP1;ratioP1;P1;durP2;ratioP2;P2;SDS_P1;SDS_P2;PMS_P1;PMS_P2;Temp;Humidity;BMP_temperature;BMP_pressure;BME280_temperature;BME280_humidity;BME280_pressure;Samples;Min_cycle;Max_cycle;Signal;HPM_P1;HPM_P2
2022/01/06 00:00:25;;;;;;;21.50;16.23;;;-0.90;96.70;-1.40;96393.00;;;;5025730;28;82744;-65
2022/01/06 00:02:52;;;;;;;28.02;18.52;;;-0.80;97.10;-1.30;96382.00;;;;5021743;28;83667;-65
2022/01/06 00:05:18;;;;;;;21.38;16.75;;;-0.80;96.90;-1.30;96389.00;;;;5022687;28;83294;-65
2022/01/06 00:07:44;;;;;;;22.60;17.42;;;-0.80;97.00;-1.30;96396.00;;;;5021207;28;82969;-64
2022/01/06 00:10:13;;;;;;;24.95;18.23;;;-0.80;97.10;-1.20;96389.00;;;;5023500;28;83207;-64
2022/01/06 00:13:00;;;;;;;23.02;18.17;;;-0.70;97.30;-1.20;96401.00;;;;5022524;28;83328;-64
2022/01/06 00:15:36;;;;;;;24.80;19.58;;;-0.70;97.20;-1.20;96393.00;;;;5018990;28;83210;-65
2022/01/06 00:26:02;;;;;;;27.17;19.20;;;-0.60;97.40;-1.10;96385.00;;;;5023028;28;83325;-65
2022/01/06 00:28:29;;;;;;;22.27;17.17;;;-0.60;97.30;-1.00;96395.00;;;;5021565;28;83467;-65
2022/01/06 00:30:59;;;;;;;24.88;18.27;;;-0.50;97.40;-1.00;96397.00;;;;5022108;28;83448;-65
2022/01/06 00:33:28;;;;;;;25.15;17.38;;;-0.50;97.30;-1.00;96401.00;;;;5022400;28;82719;-65
2022/01/06 00:35:55;;;;;;;20.10;16.33;;;-0.50;97.70;-1.00;96396.00;;;;5023137;28;83990;-65
2022/01/06 00:38:22;;;;;;;25.35;17.33;;;-0.50;97.40;-0.90;96400.00;;;;5024732;28;83086;-65
2022/01/06 00:40:48;;;;;;;19.60;16.42;;;-0.50;97.40;-0.90;96407.00;;;;5024677;28;82554;-65
2022/01/06 00:43:14;;;;;;;22.15;17.92;;;-0.40;97.40;-0.90;96402.00;;;;5026092;28;83171;-66
2022/01/06 00:45:41;;;;;;;22.30;16.50;;;-0.40;97.40;-0.80;96404.00;;;;5025699;28;83214;-63
2022/01/06 00:48:09;;;;;;;18.05;15.25;;;-0.40;97.30;-0.80;96405.00;;;;5024846;28;84137;-64
2022/01/06 00:50:38;;;;;;;19.05;15.13;;;-0.40;97.40;-0.80;96421.00;;;;5025166;28;82627;-64
2022/01/06 00:53:04;;;;;;;23.50;15.90;;;-0.30;97.40;-0.80;96413.00;;;;5018767;28;83505;-64
2022/01/06 00:55:38;;;;;;;21.45;15.85;;;-0.30;97.40;-0.80;96409.00;;;;5025575;28;83465;-64
2022/01/06 00:58:05;;;;;;;18.27;13.60;;;-0.30;97.30;-0.70;96411.00;;;;5026085;28;82933;-64
2022/01/06 01:00:40;;;;;;;19.10;13.30;;;-0.30;97.30;-0.70;96411.00;;;;5030998;28;83108;-63
2022/01/06 01:03:20;;;;;;;15.95;12.32;;;-0.20;97.30;-0.70;96408.00;;;;5025281;28;84581;-64
2022/01/06 01:05:50;;;;;;;14.00;11.70;;;-0.20;97.30;-0.60;96413.00;;;;5025969;28;84509;-64
2022/01/06 01:08:17;;;;;;;17.23;11.93;;;-0.20;97.30;-0.60;96420.00;;;;5025228;28;82748;-64
2022/01/06 01:10:51;;;;;;;16.17;10.73;;;-0.20;97.10;-0.60;96413.00;;;;5025917;28;83394;-64
2022/01/06 01:13:47;;;;;;;;;;;-0.10;97.10;-0.60;96413.00;;;;5026133;28;83577;-63
2022/01/06 01:16:31;;;;;;;20.90;11.70;;;-0.10;97.00;-0.60;96419.00;;;;5024764;28;83317;-64
2022/01/06 01:22:30;;;;;;;12.38;10.93;;;-0.10;96.90;-0.50;96415.00;;;;5019885;28;82702;-64
2022/01/06 01:25:34;;;;;;;15.60;10.85;;;-0.10;96.70;-0.50;96414.00;;;;5022150;28;82635;-63
2022/01/06 01:28:32;;;;;;;14.45;10.02;;;0.00;96.70;-0.50;96412.00;;;;5021980;28;82996;-65
2022/01/06 01:31:25;;;;;;;14.85;9.77;;;-0.10;96.60;-0.50;96411.00;;;;5025336;28;82786;-65
2022/01/06 01:34:02;;;;;;;10.73;9.32;;;0.00;96.60;-0.50;96415.00;;;;5028192;28;82182;-64
2022/01/06 01:36:28;;;;;;;14.23;10.73;;;0.00;96.50;-0.50;96410.00;;;;5021032;28;82632;-64
2022/01/06 01:38:54;;;;;;;11.90;10.07;;;0.00;96.40;-0.50;96407.00;;;;5024832;28;82752;-64
2022/01/06 01:41:21;;;;;;;14.38;9.60;;;0.00;96.30;-0.50;96403.00;;;;5025315;28;84506;-65
2022/01/06 01:43:47;;;;;;;10.25;8.77;;;0.00;96.30;-0.40;96406.00;;;;5025826;28;82394;-65
2022/01/06 01:46:17;;;;;;;13.07;9.65;;;0.10;96.30;-0.40;96415.00;;;;5024547;28;82637;-64
2022/01/06 01:49:12;;;;;;;14.32;9.63;;;0.10;96.30;-0.40;96404.00;;;;5022515;28;83930;-64
2022/01/06 01:51:36;;;;;;;12.38;9.80;;;0.00;96.20;-0.40;96411.00;;;;5021980;28;82073;-55
2022/01/06 01:54:02;;;;;;;10.52;8.45;;;0.10;96.50;-0.40;96408.00;;;;5024162;28;82282;-64
2022/01/06 01:56:29;;;;;;;10.95;9.13;;;0.10;96.20;-0.40;96410.00;;;;5023773;28;83834;-65
2022/01/06 01:58:56;;;;;;;16.50;10.07;;;0.10;96.10;-0.40;96406.00;;;;5024186;28;83617;-64
2022/01/06 02:01:22;;;;;;;12.00;9.45;;;0.10;96.10;-0.40;96409.00;;;;5023135;28;82656;-64
2022/01/06 02:03:49;;;;;;;14.55;9.63;;;0.10;96.20;-0.40;96406.00;;;;5022319;28;82709;-64
2022/01/06 02:06:15;;;;;;;12.25;9.68;;;0.10;96.30;-0.40;96403.00;;;;5023888;28;82721;-64
2022/01/06 02:08:41;;;;;;;12.13;9.60;;;0.10;96.30;-0.40;96400.00;;;;5023995;28;82265;-64
2022/01/06 02:11:07;;;;;;;13.10;9.57;;;0.10;96.30;-0.40;96409.00;;;;5022616;28;82191;-64
2022/01/06 02:13:33;;;;;;;13.13;10.27;;;0.10;96.30;-0.40;96419.00;;;;5024086;28;82284;-64
2022/01/06 02:16:03;;;;;;;16.63;11.02;;;0.10;96.30;-0.40;96415.00;;;;5021283;28;83654;-64
2022/01/06 02:18:30;;;;;;;13.05;9.80;;;0.10;96.30;-0.40;96408.00;;;;5022603;28;84395;-64
2022/01/06 02:20:56;;;;;;;13.63;10.68;;;0.10;96.30;-0.40;96417.00;;;;5023136;28;83053;-64
2022/01/06 02:23:23;;;;;;;15.35;10.45;;;0.10;96.30;-0.40;96419.00;;;;5022910;28;83404;-64
2022/01/06 02:25:49;;;;;;;15.85;10.00;;;0.10;96.30;-0.40;96425.00;;;;5017842;28;84038;-64
2022/01/06 02:28:22;;;;;;;14.40;9.60;;;0.10;96.30;-0.40;96416.00;;;;5022609;28;84405;-64
2022/01/06 02:30:51;;;;;;;13.05;9.80;;;0.10;96.30;-0.40;96427.00;;;;5020856;28;84144;-51
2022/01/06 02:33:19;;;;;;;11.43;9.48;;;0.10;96.30;-0.40;96423.00;;;;5023335;28;82660;-59
2022/01/06 02:35:47;;;;;;;11.20;9.35;;;0.10;96.30;-0.30;96419.00;;;;5019924;28;83197;-51
2022/01/06 02:38:14;;;;;;;14.02;9.82;;;0.20;96.30;-0.30;96425.00;;;;5023451;28;82422;-51
2022/01/06 02:40:40;;;;;;;14.80;10.02;;;0.10;96.20;-0.40;96422.00;;;;5020248;28;82432;-51
2022/01/06 02:43:07;;;;;;;16.75;9.98;;;0.10;96.10;-0.30;96430.00;;;;5019835;28;82822;-53
2022/01/06 02:45:36;;;;;;;18.58;11.52;;;0.10;96.10;-0.40;96433.00;;;;5021714;28;83651;-52
2022/01/06 02:48:08;;;;;;;15.05;9.32;;;0.10;96.10;-0.40;96422.00;;;;5022102;28;83229;-51
2022/01/06 02:50:38;;;;;;;14.73;9.75;;;0.10;96.10;-0.30;96433.00;;;;5021852;28;83454;-55
2022/01/06 02:53:09;;;;;;;21.80;10.23;;;0.10;96.10;-0.40;96428.00;;;;5020369;28;82872;-64
2022/01/06 02:55:39;;;;;;;20.08;10.73;;;0.10;96.10;-0.40;96426.00;;;;5018897;28;83493;-65
2022/01/06 02:58:05;;;;;;;13.65;9.65;;;0.10;96.10;-0.40;96431.00;;;;5018924;28;83176;-64
2022/01/06 03:00:35;;;;;;;13.10;9.70;;;0.10;96.00;-0.30;96433.00;;;;5022921;27;83125;-65
2022/01/06 03:03:01;;;;;;;15.18;9.98;;;0.10;96.10;-0.40;96430.00;;;;5023047;28;82510;-64
2022/01/06 03:05:28;;;;;;;12.95;9.13;;;0.10;96.00;-0.40;96438.00;;;;5021774;28;83118;-65
2022/01/06 03:07:54;;;;;;;11.98;9.10;;;0.10;96.40;-0.30;96437.00;;;;5022891;28;83456;-65
2022/01/06 03:10:20;;;;;;;13.70;10.07;;;0.10;96.10;-0.30;96440.00;;;;5022300;28;83348;-60
2022/01/06 03:12:47;;;;;;;17.05;10.38;;;0.10;96.00;-0.30;96444.00;;;;5023588;28;82865;-60
2022/01/06 03:15:20;;;;;;;15.90;10.93;;;0.10;96.10;-0.30;96456.00;;;;5020891;28;83817;-60
2022/01/06 03:17:51;;;;;;;18.35;11.25;;;0.10;96.20;-0.30;96437.00;;;;5021878;28;83215;-60
2022/01/06 03:20:19;;;;;;;17.10;10.17;;;0.10;96.20;-0.30;96441.00;;;;5020963;28;84054;-65
2022/01/06 03:22:45;;;;;;;18.55;10.45;;;0.10;96.30;-0.30;96444.00;;;;5021597;28;83372;-65
2022/01/06 03:25:13;;;;;;;16.73;11.02;;;0.10;96.30;-0.40;96443.00;;;;5020280;28;84906;-52
2022/01/06 03:27:41;;;;;;;16.75;10.77;;;0.10;96.30;-0.30;96446.00;;;;5020526;28;83480;-53
2022/01/06 03:30:11;;;;;;;17.05;11.20;;;0.10;96.30;-0.30;96442.00;;;;5019910;28;82949;-53
2022/01/06 03:32:38;;;;;;;16.00;11.32;;;0.10;96.40;-0.40;96443.00;;;;5014875;28;83092;-52
2022/01/06 03:35:05;;;;;;;16.77;12.38;;;0.10;96.40;-0.40;96439.00;;;;5020652;28;83968;-53
2022/01/06 03:37:31;;;;;;;22.80;13.63;;;0.10;96.50;-0.40;96446.00;;;;5020074;28;83371;-53
2022/01/06 03:39:57;;;;;;;15.85;11.70;;;0.10;96.60;-0.40;96444.00;;;;5017494;28;82846;-52
2022/01/06 03:42:23;;;;;;;18.13;12.85;;;0.10;96.80;-0.40;96444.00;;;;5020045;28;82986;-55
2022/01/06 03:44:50;;;;;;;18.58;13.63;;;0.10;96.90;-0.40;96440.00;;;;5020756;28;83719;-52
2022/01/06 03:47:17;;;;;;;16.45;13.27;;;0.10;96.90;-0.40;96438.00;;;;5020647;28;84431;-60
2022/01/06 03:49:43;;;;;;;20.88;14.95;;;0.00;96.90;-0.40;96438.00;;;;5021297;28;84335;-60
2022/01/06 03:52:09;;;;;;;25.95;15.55;;;0.00;97.10;-0.40;96432.00;;;;5021463;28;82854;-52
2022/01/06 03:54:35;;;;;;;26.63;15.95;;;0.00;97.10;-0.40;96433.00;;;;5021397;28;82969;-52
2022/01/06 03:57:01;;;;;;;26.98;14.88;;;0.00;97.20;-0.40;96434.00;;;;5020994;28;83091;-51
2022/01/06 03:59:27;;;;;;;26.63;14.90;;;0.00;97.20;-0.40;96439.00;;;;5022962;28;83275;-52
2022/01/06 04:01:53;;;;;;;28.40;15.05;;;0.00;97.30;-0.50;96438.00;;;;5020822;28;83093;-55
2022/01/06 04:04:19;;;;;;;24.50;14.45;;;0.00;97.40;-0.50;96430.00;;;;5021263;28;82682;-55
2022/01/06 04:06:45;;;;;;;24.08;12.93;;;0.00;97.30;-0.50;96435.00;;;;5020697;28;83021;-60
2022/01/06 04:09:12;;;;;;;21.23;15.05;;;0.00;97.40;-0.50;96444.00;;;;5020833;28;83153;-61
2022/01/06 04:11:38;;;;;;;25.92;15.25;;;0.00;97.40;-0.50;96465.00;;;;5023832;28;82805;-60
2022/01/06 04:14:04;;;;;;;9.07;5.38;;;0.00;97.50;-0.60;96458.00;;;;5022964;28;83663;-50
2022/01/06 04:16:34;;;;;;;7.82;4.25;;;-0.20;96.20;-0.80;96455.00;;;;5024338;28;84167;-65
2022/01/06 04:19:01;;;;;;;6.32;3.20;;;-0.40;95.80;-0.90;96458.00;;;;5025110;28;82641;-65
2022/01/06 04:21:27;;;;;;;4.32;2.75;;;-0.50;95.70;-1.00;96460.00;;;;5023573;28;82696;-54
2022/01/06 04:23:53;;;;;;;4.43;2.70;;;-0.50;95.70;-1.10;96461.00;;;;5024852;28;83505;-54
2022/01/06 04:26:19;;;;;;;6.78;3.10;;;-0.60;95.50;-1.10;96464.00;;;;5023372;28;84066;-53
2022/01/06 04:28:45;;;;;;;9.40;3.72;;;-0.60;95.50;-1.10;96456.00;;;;5023795;28;81868;-56
2022/01/06 04:31:12;;;;;;;6.55;3.13;;;-0.60;95.40;-1.10;96464.00;;;;5023880;28;83454;-55
2022/01/06 04:33:38;;;;;;;8.85;3.50;;;-0.60;95.50;-1.10;96461.00;;;;5027614;28;82782;-53
2022/01/06 04:36:05;;;;;;;9.57;3.33;;;-0.60;95.40;-1.10;96460.00;;;;5007260;28;84072;-54
2022/01/06 04:38:33;;;;;;;8.50;3.80;;;-0.60;95.50;-1.10;96456.00;;;;5024779;28;81919;-51
2022/01/06 04:40:59;;;;;;;9.20;3.70;;;-0.60;95.50;-1.10;96468.00;;;;5025206;28;82157;-49
2022/01/06 04:43:25;;;;;;;8.82;4.47;;;-0.60;95.50;-1.10;96454.00;;;;5025371;28;81892;-52
2022/01/06 04:45:52;;;;;;;6.15;3.80;;;-0.60;95.60;-1.10;96464.00;;;;5025245;28;82048;-54
2022/01/06 04:48:18;;;;;;;5.85;3.90;;;-0.60;95.50;-1.10;96456.00;;;;5025100;28;83337;-57
2022/01/06 04:50:44;;;;;;;8.63;3.60;;;-0.60;95.60;-1.10;96459.00;;;;5024190;28;82283;-54
2022/01/06 04:53:10;;;;;;;6.60;3.55;;;-0.60;95.50;-1.10;96458.00;;;;5025144;28;83623;-55
2022/01/06 04:55:36;;;;;;;9.57;4.38;;;-0.60;95.40;-1.10;96470.00;;;;5024185;28;82319;-54
2022/01/06 04:58:02;;;;;;;11.63;4.40;;;-0.60;95.50;-1.10;96452.00;;;;5025150;28;82017;-50
2022/01/06 05:00:28;;;;;;;12.07;4.38;;;-0.60;95.60;-1.00;96466.00;;;;5023979;28;82494;-54
2022/01/06 05:02:54;;;;;;;9.40;4.60;;;-0.50;95.50;-1.00;96465.00;;;;5022633;28;87576;-55
2022/01/06 05:05:21;;;;;;;12.70;5.78;;;-0.50;95.50;-1.00;96462.00;;;;5022045;28;87217;-48
2022/01/06 05:07:47;;;;;;;8.02;4.88;;;-0.50;95.60;-1.00;96469.00;;;;5022467;28;86944;-52
2022/01/06 05:10:13;;;;;;;11.88;5.70;;;-0.50;95.60;-1.00;96469.00;;;;5021722;28;87311;-53
2022/01/06 05:12:44;;;;;;;11.60;5.80;;;-0.50;95.50;-1.00;96469.00;;;;5026679;28;88447;-51
2022/01/06 05:15:13;;;;;;;12.23;6.00;;;-0.50;95.60;-1.00;96477.00;;;;5022731;28;88297;-53
2022/01/06 05:17:41;;;;;;;17.65;6.32;;;-0.50;95.60;-1.00;96470.00;;;;5014047;28;87161;-53
2022/01/06 05:20:08;;;;;;;11.98;5.78;;;-0.50;95.60;-1.00;96491.00;;;;5021164;28;87122;-54
2022/01/06 05:22:41;;;;;;;13.82;6.72;;;-0.50;95.70;-1.00;96491.00;;;;5020511;28;88700;-53
2022/01/06 05:25:08;;;;;;;16.58;7.07;;;-0.50;95.70;-1.00;96477.00;;;;5021654;28;87294;-52
2022/01/06 05:27:34;;;;;;;14.77;7.55;;;-0.40;95.80;-0.90;96470.00;;;;5019405;28;88196;-53
2022/01/06 05:30:01;;;;;;;25.70;9.32;;;-0.40;95.80;-0.90;96466.00;;;;5022073;28;86228;-53
2022/01/06 05:32:27;;;;;;;29.23;9.65;;;-0.40;95.70;-0.90;96469.00;;;;5021124;28;87362;-54
2022/01/06 05:34:53;;;;;;;33.05;10.30;;;-0.40;95.70;-0.90;96477.00;;;;5021198;28;88788;-52
2022/01/06 05:37:19;;;;;;;34.75;11.15;;;-0.30;95.80;-0.80;96468.00;;;;5020172;28;88604;-52
2022/01/06 05:39:45;;;;;;;23.83;8.68;;;-0.30;95.70;-0.80;96490.00;;;;5020724;28;87475;-55
2022/01/06 05:42:13;;;;;;;37.17;12.40;;;-0.30;95.70;-0.80;96483.00;;;;5021216;28;88715;-50
2022/01/06 05:44:43;;;;;;;24.00;10.45;;;-0.30;95.70;-0.80;96478.00;;;;5020158;28;87131;-53
2022/01/06 05:47:09;;;;;;;20.75;10.32;;;-0.30;95.60;-0.70;96475.00;;;;5020523;28;86961;-52
2022/01/06 05:49:35;;;;;;;28.90;10.90;;;-0.30;95.60;-0.80;96477.00;;;;5020688;28;87099;-53
2022/01/06 05:52:02;;;;;;;35.60;11.35;;;-0.30;95.60;-0.70;96473.00;;;;5019718;28;87566;-52
2022/01/06 05:54:28;;;;;;;30.35;11.15;;;-0.30;95.60;-0.70;96469.00;;;;5020878;28;88483;-52
2022/01/06 05:56:54;;;;;;;27.60;10.13;;;-0.20;95.60;-0.70;96469.00;;;;5011394;28;87308;-52
2022/01/06 05:59:20;;;;;;;28.42;11.40;;;-0.20;95.70;-0.60;96484.00;;;;5019570;28;87452;-52
2022/01/06 06:01:47;;;;;;;31.77;10.40;;;-0.20;95.60;-0.60;96477.00;;;;5019584;28;88438;-51
2022/01/06 06:04:14;;;;;;;44.72;12.88;;;-0.20;95.60;-0.60;96484.00;;;;5019019;28;87521;-56
2022/01/06 06:06:40;;;;;;;30.40;10.73;;;-0.20;95.50;-0.60;96471.00;;;;5019952;28;87750;-54
2022/01/06 06:09:06;;;;;;;49.08;15.65;;;-0.20;95.60;-0.60;96475.00;;;;5020761;28;87420;-53
2022/01/06 06:11:33;;;;;;;36.67;11.68;;;-0.20;95.60;-0.70;96478.00;;;;5021041;28;87121;-55
2022/01/06 06:13:59;;;;;;;40.25;14.63;;;-0.20;95.50;-0.70;96471.00;;;;5020672;28;87303;-53
2022/01/06 06:16:25;;;;;;;39.35;13.35;;;-0.20;95.50;-0.70;96477.00;;;;5020068;28;87036;-54
2022/01/06 06:18:51;;;;;;;42.92;13.00;;;-0.20;95.50;-0.70;96470.00;;;;5021360;28;86146;-49
2022/01/06 06:21:18;;;;;;;44.10;11.68;;;-0.20;95.60;-0.70;96470.00;;;;5019161;28;88008;-54
2022/01/06 06:23:44;;;;;;;29.77;10.13;;;-0.20;95.70;-0.60;96470.00;;;;5020190;28;87378;-53
2022/01/06 06:26:11;;;;;;;33.75;12.18;;;-0.20;95.70;-0.60;96466.00;;;;5019042;28;87884;-50
2022/01/06 06:28:38;;;;;;;30.52;12.32;;;-0.20;95.70;-0.60;96472.00;;;;5019548;28;87440;-52
2022/01/06 06:31:04;;;;;;;34.00;10.48;;;-0.10;95.70;-0.60;96467.00;;;;5011670;28;88163;-52
2022/01/06 06:33:30;;;;;;;21.65;9.23;;;-0.10;95.70;-0.60;96461.00;;;;5020402;28;88508;-53
2022/01/06 06:35:56;;;;;;;26.02;9.30;;;-0.10;95.60;-0.50;96453.00;;;;5020774;28;87502;-54
2022/01/06 06:38:22;;;;;;;20.27;8.70;;;0.00;95.60;-0.50;96457.00;;;;5020133;28;87351;-53
2022/01/06 06:40:49;;;;;;;26.02;9.63;;;0.00;95.60;-0.50;96451.00;;;;5020590;28;87627;-52
2022/01/06 06:43:15;;;;;;;28.92;10.52;;;0.00;95.40;-0.40;96457.00;;;;5021499;28;87392;-50
2022/01/06 06:45:42;;;;;;;18.02;9.85;;;0.10;95.50;-0.40;96461.00;;;;5020207;28;87500;-52
2022/01/06 06:48:09;;;;;;;46.90;13.63;;;0.10;95.40;-0.40;96453.00;;;;5020581;28;87393;-51
2022/01/06 06:50:35;;;;;;;42.55;13.23;;;0.10;95.30;-0.40;96457.00;;;;5018910;28;88127;-52
2022/01/06 06:53:04;;;;;;;31.63;12.00;;;0.20;95.20;-0.30;96459.00;;;;5018869;28;89371;-54
2022/01/06 06:55:31;;;;;;;26.77;9.65;;;0.20;95.10;-0.30;96447.00;;;;5019587;28;86965;-49
2022/01/06 06:57:57;;;;;;;35.17;10.43;;;0.20;95.10;-0.30;96455.00;;;;5019623;28;87456;-52
2022/01/06 07:00:24;;;;;;;37.10;11.27;;;0.20;95.10;-0.30;96449.00;;;;5019470;28;87992;-54
2022/01/06 07:02:50;;;;;;;32.47;11.48;;;0.20;95.00;-0.30;96443.00;;;;5018448;28;88736;-53
2022/01/06 07:05:16;;;;;;;22.05;10.55;;;0.10;94.90;-0.30;96453.00;;;;5018716;28;87902;-53
2022/01/06 07:07:44;;;;;;;31.15;11.13;;;0.10;95.00;-0.30;96445.00;;;;5019340;28;86451;-53
2022/01/06 07:10:11;;;;;;;30.38;11.43;;;0.20;95.10;-0.30;96456.00;;;;5018596;28;87625;-52
2022/01/06 07:12:39;;;;;;;32.90;11.80;;;0.20;95.10;-0.30;96454.00;;;;5022189;28;87893;-52
2022/01/06 07:15:07;;;;;;;41.72;13.05;;;0.20;95.10;-0.30;96451.00;;;;5018676;28;88260;-54
2022/01/06 07:17:34;;;;;;;27.73;11.90;;;0.20;95.10;-0.30;96456.00;;;;5011345;28;87036;-52
2022/01/06 07:20:00;;;;;;;32.85;12.85;;;0.20;95.20;-0.30;96454.00;;;;5018475;28;87079;-52
2022/01/06 07:22:26;;;;;;;27.83;12.82;;;0.20;95.10;-0.30;96455.00;;;;5018538;28;87457;-52
2022/01/06 07:24:52;;;;;;;31.45;12.02;;;0.20;95.40;-0.30;96458.00;;;;5018641;28;87412;-55
2022/01/06 07:27:19;;;;;;;32.70;14.05;;;0.20;95.20;-0.30;96455.00;;;;5018682;28;87747;-55
2022/01/06 07:29:45;;;;;;;26.60;12.93;;;0.20;95.10;-0.30;96455.00;;;;5017766;28;87647;-55
2022/01/06 07:32:11;;;;;;;27.48;14.02;;;0.20;95.00;-0.30;96461.00;;;;5019683;28;87410;-54
2022/01/06 07:34:37;;;;;;;25.35;12.82;;;0.20;95.10;-0.30;96466.00;;;;5019595;28;87070;-52
2022/01/06 07:37:04;;;;;;;33.42;14.15;;;0.20;95.10;-0.30;96454.00;;;;5018632;28;87355;-53
2022/01/06 07:39:30;;;;;;;22.65;12.70;;;0.20;95.10;-0.20;96458.00;;;;5013444;28;88600;-55
2022/01/06 07:41:56;;;;;;;25.50;14.00;;;0.20;95.00;-0.20;96465.00;;;;5018856;28;88486;-54
2022/01/06 07:44:23;;;;;;;30.88;13.15;;;0.20;94.90;-0.20;96464.00;;;;5019192;28;87023;-54
2022/01/06 07:46:49;;;;;;;25.85;12.85;;;0.40;95.10;-0.10;96465.00;;;;5001089;28;87032;-55
2022/01/06 07:49:15;;;;;;;19.70;13.05;;;0.30;94.80;-0.10;96462.00;;;;5017418;28;87008;-53
2022/01/06 07:51:41;;;;;;;20.83;13.32;;;0.30;94.70;-0.10;96456.00;;;;5019162;28;87338;-55
2022/01/06 07:54:08;;;;;;;20.65;13.68;;;0.40;94.70;-0.10;96456.00;;;;5019262;28;86873;-55
2022/01/06 07:56:34;;;;;;;25.55;14.55;;;0.30;94.50;-0.20;96445.00;;;;5019046;28;86317;-53
2022/01/06 07:59:01;;;;;;;29.67;14.27;;;0.30;94.50;-0.20;96454.00;;;;5023166;28;87663;-54
2022/01/06 08:01:27;;;;;;;18.45;12.27;;;0.30;94.60;-0.10;96451.00;;;;5018767;28;88462;-50
2022/01/06 08:03:53;;;;;;;23.27;13.52;;;0.40;94.50;-0.10;96448.00;;;;5019004;28;88434;-54
2022/01/06 08:06:20;;;;;;;20.75;13.73;;;0.40;94.30;-0.10;96448.00;;;;5019148;28;87054;-54
2022/01/06 08:08:47;;;;;;;18.77;12.98;;;0.40;94.20;-0.10;96445.00;;;;5019173;28;87515;-52
2022/01/06 08:11:14;;;;;;;20.13;12.32;;;0.40;94.20;-0.10;96445.00;;;;5018902;28;88477;-55
2022/01/06 08:13:40;;;;;;;21.23;12.90;;;0.40;94.20;0.00;96441.00;;;;5019025;28;87010;-53
2022/01/06 08:16:07;;;;;;;17.17;11.63;;;0.50;94.20;0.10;96441.00;;;;5017227;28;87789;-47
2022/01/06 08:18:33;;;;;;;23.70;13.95;;;0.50;94.20;0.10;96443.00;;;;5018602;28;87561;-56
2022/01/06 08:20:59;;;;;;;22.30;13.90;;;0.50;94.20;0.10;96436.00;;;;5017062;28;89628;-53
2022/01/06 08:23:26;;;;;;;21.65;12.85;;;0.60;94.20;0.10;96436.00;;;;5017871;28;86917;-53
2022/01/06 08:25:52;;;;;;;27.10;14.15;;;0.60;94.00;0.10;96436.00;;;;5017688;28;87032;-55
2022/01/06 08:28:18;;;;;;;19.50;13.35;;;0.50;94.00;0.00;96427.00;;;;5017554;28;89596;-55
2022/01/06 08:30:44;;;;;;;26.10;14.50;;;0.50;94.00;0.00;96434.00;;;;5017498;28;89284;-51
2022/01/06 08:33:10;;;;;;;17.65;11.85;;;0.50;94.00;-0.10;96442.00;;;;5018117;28;87214;-52
2022/01/06 08:35:37;;;;;;;15.02;11.70;;;0.40;94.10;-0.10;96439.00;;;;5018565;28;87046;-61
2022/01/06 08:38:03;;;;;;;26.00;14.50;;;0.40;94.10;0.00;96437.00;;;;5018309;28;87538;-61
2022/01/06 08:40:31;;;;;;;21.88;14.80;;;0.40;94.20;-0.10;96430.00;;;;5018591;28;87503;-59
2022/01/06 08:42:58;;;;;;;25.85;13.50;;;0.40;94.20;0.00;96437.00;;;;5019112;28;86909;-60
2022/01/06 08:45:24;;;;;;;26.95;13.95;;;0.50;94.20;0.00;96427.00;;;;5019004;28;86324;-61
2022/01/06 08:47:50;;;;;;;27.05;14.85;;;0.50;94.20;0.00;96427.00;;;;5017072;28;87581;-61
2022/01/06 08:50:16;;;;;;;23.80;13.80;;;0.50;94.20;0.00;96426.00;;;;5017716;28;87357;-59
2022/01/06 08:52:43;;;;;;;20.63;13.38;;;0.50;94.20;0.00;96432.00;;;;5016548;28;88411;-61
2022/01/06 08:55:10;;;;;;;32.65;13.90;;;0.50;94.10;0.00;96431.00;;;;5017638;28;87197;-59
2022/01/06 08:57:37;;;;;;;24.42;12.48;;;0.50;94.10;0.10;96433.00;;;;5019689;28;88536;-60
2022/01/06 09:00:10;;;;;;;19.85;12.05;;;0.50;94.20;0.10;96436.00;;;;5038343;28;87464;-59
2022/01/06 09:02:37;;;;;;;22.80;12.88;;;0.60;94.10;0.10;96439.00;;;;5021874;28;86934;-59
2022/01/06 09:05:06;;;;;;;18.85;11.23;;;0.60;94.00;0.10;96431.00;;;;5022320;28;87017;-59
2022/01/06 09:07:34;;;;;;;21.98;11.63;;;0.60;94.00;0.10;96432.00;;;;5021571;28;87517;-60
2022/01/06 09:10:00;;;;;;;21.40;10.82;;;0.60;93.90;0.10;96429.00;;;;5021282;28;87289;-61
2022/01/06 09:12:27;;;;;;;19.85;11.50;;;0.60;94.00;0.10;96420.00;;;;5023578;28;86972;-60
2022/01/06 09:14:53;;;;;;;18.42;10.43;;;0.60;93.80;0.10;96428.00;;;;5021134;28;87060;-60
2022/01/06 09:17:19;;;;;;;18.90;10.80;;;0.60;93.90;0.10;96420.00;;;;5019848;28;89642;-59
2022/01/06 09:19:45;;;;;;;14.02;9.70;;;0.60;93.90;0.10;96421.00;;;;5020103;28;89731;-60
2022/01/06 09:22:11;;;;;;;15.32;10.05;;;0.60;93.70;0.10;96423.00;;;;5020994;28;87036;-62
2022/01/06 09:24:38;;;;;;;17.15;10.20;;;0.60;93.80;0.20;96430.00;;;;5022101;28;87093;-59
2022/01/06 09:27:04;;;;;;;17.90;10.15;;;0.70;93.70;0.20;96426.00;;;;5002281;28;90483;-61
2022/01/06 09:29:30;;;;;;;15.40;9.50;;;0.70;93.70;0.20;96424.00;;;;5020161;28;87378;-59
2022/01/06 09:31:57;;;;;;;17.73;10.10;;;0.80;93.70;0.30;96427.00;;;;5021586;28;87140;-60
2022/01/06 09:34:23;;;;;;;17.33;9.98;;;0.80;93.70;0.30;96435.00;;;;5022547;28;86676;-61
2022/01/06 09:36:49;;;;;;;14.90;9.30;;;0.90;93.60;0.40;96424.00;;;;5020493;28;87680;-59
2022/01/06 09:39:16;;;;;;;18.65;10.98;;;0.90;93.40;0.30;96435.00;;;;5021315;28;87186;-61
2022/01/06 09:41:42;;;;;;;16.48;10.35;;;0.90;93.30;0.30;96427.00;;;;5019391;28;88931;-61
2022/01/06 09:44:09;;;;;;;14.77;9.40;;;0.80;93.60;0.30;96424.00;;;;5020543;28;86945;-58
2022/01/06 09:46:35;;;;;;;23.60;10.52;;;0.90;93.50;0.30;96431.00;;;;5020568;28;87807;-61
2022/01/06 09:49:01;;;;;;;21.35;10.45;;;0.80;93.30;0.30;96422.00;;;;5020337;28;87463;-58
2022/01/06 09:51:30;;;;;;;21.67;12.48;;;0.80;93.40;0.30;96426.00;;;;5020307;28;86959;-61
2022/01/06 09:53:59;;;;;;;21.38;10.13;;;0.70;93.40;0.20;96416.00;;;;5020215;28;87408;-61
2022/01/06 09:56:29;;;;;;;22.63;11.45;;;0.70;93.80;0.30;96412.00;;;;5019780;28;88569;-61
2022/01/06 09:58:57;;;;;;;16.13;10.20;;;0.80;93.60;0.30;96415.00;;;;5027696;28;87520;-60
2022/01/06 10:01:23;;;;;;;16.88;9.10;;;0.80;93.60;0.40;96422.00;;;;5029128;28;87175;-59
2022/01/06 10:03:49;;;;;;;19.52;10.77;;;0.90;93.60;0.40;96416.00;;;;5020942;28;86944;-60
2022/01/06 10:06:33;;;;;;;17.88;9.63;;;0.90;93.40;0.40;96416.00;;;;5019461;28;88448;-61
2022/01/06 10:09:04;;;;;;;19.05;9.07;;;0.90;93.30;0.40;96412.00;;;;5021245;28;88273;-61
2022/01/06 10:11:34;;;;;;;16.17;9.15;;;0.90;93.30;0.40;96410.00;;;;5020309;28;86929;-59
2022/01/06 10:14:11;;;;;;;13.73;8.25;;;0.90;93.10;0.50;96406.00;;;;5020797;28;87439;-63
2022/01/06 10:16:45;;;;;;;14.52;8.70;;;1.00;93.20;0.50;96423.00;;;;5019968;28;87571;-61
2022/01/06 10:19:14;;;;;;;18.15;9.18;;;1.00;93.10;0.40;96414.00;;;;5020814;28;87231;-61
2022/01/06 10:21:57;;;;;;;22.88;9.68;;;0.90;93.20;0.40;96416.00;;;;5018754;28;86908;-60
2022/01/06 10:24:28;;;;;;;20.02;9.40;;;0.90;93.20;0.40;96403.00;;;;5020212;28;86454;-60
2022/01/06 10:27:04;;;;;;;19.08;9.30;;;0.90;93.30;0.40;96410.00;;;;5020254;28;87638;-59
2022/01/06 10:29:41;;;;;;;13.30;7.65;;;0.90;93.30;0.40;96414.00;;;;5020237;28;88409;-60
2022/01/06 10:32:12;;;;;;;16.90;7.88;;;0.90;93.40;0.40;96401.00;;;;5020018;28;87770;-61
2022/01/06 10:34:54;;;;;;;9.73;7.03;;;0.90;93.40;0.30;96414.00;;;;5021360;28;87080;-60
2022/01/06 10:37:39;;;;;;;12.60;7.20;;;0.80;93.40;0.30;96416.00;;;;5020344;28;87807;-60
2022/01/06 10:40:24;;;;;;;20.25;16.55;;;0.80;93.50;0.40;96409.00;;;;5021265;28;87210;-60
2022/01/06 10:42:55;;;;;;;13.48;7.38;;;0.80;93.50;0.30;96407.00;;;;5020589;28;87375;-62
2022/01/06 10:45:26;;;;;;;34.22;9.88;;;0.80;93.40;0.40;96410.00;;;;5020956;28;86859;-61
2022/01/06 10:47:56;;;;;;;15.20;7.80;;;0.80;93.50;0.40;96409.00;;;;5020723;28;89239;-61
2022/01/06 10:50:29;;;;;;;23.33;8.75;;;0.80;93.50;0.40;96403.00;;;;5021128;28;88379;-61
2022/01/06 10:52:59;;;;;;;20.95;9.48;;;0.80;93.70;0.40;96413.00;;;;5020935;28;87073;-61
2022/01/06 10:55:31;;;;;;;13.55;7.38;;;0.90;93.90;0.50;96402.00;;;;5019682;28;86969;-60
2022/01/06 10:58:08;;;;;;;16.02;7.28;;;0.90;93.90;0.50;96397.00;;;;5020140;28;88422;-59
2022/01/06 11:00:44;;;;;;;16.98;7.82;;;1.00;93.60;0.60;96409.00;;;;5020709;28;87153;-61
2022/01/06 11:03:19;;;;;;;15.32;7.57;;;1.00;93.30;0.70;96409.00;;;;5019550;28;87507;-61
2022/01/06 11:05:54;;;;;;;16.75;7.38;;;1.10;93.60;0.70;96412.00;;;;5020606;28;87427;-61